sensor_id;sensor_type;location;lat;lon;timestamp;P1;durP1;ratioP1;P2;durP2;ratioP2
17024;SDS011;8629;42.496;25.620;2022-08-19T00:01:55;7.87;;;7.27;;
17024;SDS011;8629;42.496;25.620;2022-08-19T00:04:24;9.63;;;8.00;;
17024;SDS011;8629;42.496;25.620;2022-08-19T00:06:52;8.17;;;7.37;;
17024;SDS011;8629;42.496;25.620;2022-08-19T00:09:20;8.37;;;7.67;;
17024;SDS011;8629;42.496;25.620;2022-08-19T00:11:51;8.37;;;7.53;;
17024;SDS011;8629;42.496;25.620;2022-08-19T00:14:20;9.03;;;7.73;;
17024;SDS011;8629;42.496;25.620;2022-08-19T00:16:49;7.97;;;7.10;;
17024;SDS011;8629;42.496;25.620;2022-08-19T00:19:16;8.23;;;7.23;;
17024;SDS011;8629;42.496;25.620;2022-08-19T00:21:43;7.20;;;6.50;;
17024;SDS011;8629;42.496;25.620;2022-08-19T00:24:12;9.03;;;8.10;;
17024;SDS011;8629;42.496;25.620;2022-08-19T00:26:40;8.07;;;7.20;;
17024;SDS011;8629;42.496;25.620;2022-08-19T00:29:09;7.63;;;7.00;;
17024;SDS011;8629;42.496;25.620;2022-08-19T00:31:37;8.30;;;7.50;;
17024;SDS011;8629;42.496;25.620;2022-08-19T00:34:04;8.83;;;8.03;;
17024;SDS011;8629;42.496;25.620;2022-08-19T00:36:31;8.47;;;7.40;;
17024;SDS011;8629;42.496;25.620;2022-08-19T00:38:58;8.30;;;7.60;;
17024;SDS011;8629;42.496;25.620;2022-08-19T00:41:26;12.83;;;7.83;;
17024;SDS011;8629;42.496;25.620;2022-08-19T00:43:58;8.77;;;7.63;;
17024;SDS011;8629;42.496;25.620;2022-08-19T00:46:28;8.10;;;7.30;;
17024;SDS011;8629;42.496;25.620;2022-08-19T00:48:56;7.47;;;6.87;;
17024;SDS011;8629;42.496;25.620;2022-08-19T00:51:24;8.33;;;7.50;;
17024;SDS011;8629;42.496;25.620;2022-08-19T00:53:51;9.07;;;8.23;;
17024;SDS011;8629;42.496;25.620;2022-08-19T00:56:19;8.13;;;7.50;;
17024;SDS011;8629;42.496;25.620;2022-08-19T00:58:46;8.07;;;7.37;;
17024;SDS011;8629;42.496;25.620;2022-08-19T01:01:13;10.37;;;7.77;;
17024;SDS011;8629;42.496;25.620;2022-08-19T01:03:41;9.33;;;8.53;;
17024;SDS011;8629;42.496;25.620;2022-08-19T01:06:08;8.23;;;7.63;;
17024;SDS011;8629;42.496;25.620;2022-08-19T01:08:35;8.87;;;8.07;;
17024;SDS011;8629;42.496;25.620;2022-08-19T01:11:02;8.43;;;7.70;;
17024;SDS011;8629;42.496;25.620;2022-08-19T01:13:30;10.60;;;8.03;;
17024;SDS011;8629;42.496;25.620;2022-08-19T01:16:00;8.87;;;7.97;;
17024;SDS011;8629;42.496;25.620;2022-08-19T01:18:29;8.40;;;7.70;;
17024;SDS011;8629;42.496;25.620;2022-08-19T01:21:02;8.80;;;7.77;;
17024;SDS011;8629;42.496;25.620;2022-08-19T01:23:34;10.30;;;9.33;;
17024;SDS011;8629;42.496;25.620;2022-08-19T01:26:11;9.90;;;7.90;;
17024;SDS011;8629;42.496;25.620;2022-08-19T01:28:40;8.83;;;8.03;;
17024;SDS011;8629;42.496;25.620;2022-08-19T01:31:08;8.80;;;8.10;;
17024;SDS011;8629;42.496;25.620;2022-08-19T01:33:37;9.17;;;8.00;;
17024;SDS011;8629;42.496;25.620;2022-08-19T01:36:05;8.90;;;8.00;;
17024;SDS011;8629;42.496;25.620;2022-08-19T01:38:36;9.03;;;8.30;;
17024;SDS011;8629;42.496;25.620;2022-08-19T01:41:04;9.63;;;8.47;;
17024;SDS011;8629;42.496;25.620;2022-08-19T01:43:31;9.27;;;8.37;;
17024;SDS011;8629;42.496;25.620;2022-08-19T01:45:59;9.43;;;8.63;;
17024;SDS011;8629;42.496;25.620;2022-08-19T01:48:26;9.10;;;8.20;;
17024;SDS011;8629;42.496;25.620;2022-08-19T01:50:55;9.33;;;8.47;;
17024;SDS011;8629;42.496;25.620;2022-08-19T01:53:22;9.20;;;8.30;;
17024;SDS011;8629;42.496;25.620;2022-08-19T01:55:51;9.03;;;7.93;;
17024;SDS011;8629;42.496;25.620;2022-08-19T01:58:19;8.37;;;7.67;;
17024;SDS011;8629;42.496;25.620;2022-08-19T02:00:48;8.43;;;7.73;;
17024;SDS011;8629;42.496;25.620;2022-08-19T02:03:15;9.30;;;8.40;;
17024;SDS011;8629;42.496;25.620;2022-08-19T02:05:43;9.70;;;8.70;;
17024;SDS011;8629;42.496;25.620;2022-08-19T02:08:10;8.60;;;7.90;;
17024;SDS011;8629;42.496;25.620;2022-08-19T02:10:39;9.20;;;8.30;;
17024;SDS011;8629;42.496;25.620;2022-08-19T02:13:08;9.03;;;8.27;;
17024;SDS011;8629;42.496;25.620;2022-08-19T02:15:35;8.77;;;7.87;;
17024;SDS011;8629;42.496;25.620;2022-08-19T02:18:02;9.73;;;8.93;;
17024;SDS011;8629;42.496;25.620;2022-08-19T02:23:52;9.17;;;8.23;;
17024;SDS011;8629;42.496;25.620;2022-08-19T02:26:19;9.57;;;8.60;;
17024;SDS011;8629;42.496;25.620;2022-08-19T02:28:47;9.57;;;8.67;;
17024;SDS011;8629;42.496;25.620;2022-08-19T02:31:15;10.37;;;9.33;;
17024;SDS011;8629;42.496;25.620;2022-08-19T02:33:44;9.63;;;8.83;;
17024;SDS011;8629;42.496;25.620;2022-08-19T02:36:12;9.93;;;9.00;;
17024;SDS011;8629;42.496;25.620;2022-08-19T02:38:39;9.43;;;8.60;;
17024;SDS011;8629;42.496;25.620;2022-08-19T02:41:06;9.63;;;8.80;;
17024;SDS011;8629;42.496;25.620;2022-08-19T02:43:35;11.20;;;9.20;;
17024;SDS011;8629;42.496;25.620;2022-08-19T02:46:12;9.03;;;8.23;;
17024;SDS011;8629;42.496;25.620;2022-08-19T02:48:40;9.50;;;8.63;;
17024;SDS011;8629;42.496;25.620;2022-08-19T02:51:07;10.17;;;9.17;;
17024;SDS011;8629;42.496;25.620;2022-08-19T02:53:34;9.80;;;9.00;;
17024;SDS011;8629;42.496;25.620;2022-08-19T02:56:05;9.00;;;8.20;;
17024;SDS011;8629;42.496;25.620;2022-08-19T02:58:33;13.50;;;9.07;;
17024;SDS011;8629;42.496;25.620;2022-08-19T03:01:00;10.23;;;9.27;;
17024;SDS011;8629;42.496;25.620;2022-08-19T03:03:29;10.37;;;9.33;;
17024;SDS011;8629;42.496;25.620;2022-08-19T03:06:04;10.80;;;8.13;;
17024;SDS011;8629;42.496;25.620;2022-08-19T03:08:32;11.30;;;10.30;;
17024;SDS011;8629;42.496;25.620;2022-08-19T03:10:59;10.67;;;9.77;;
17024;SDS011;8629;42.496;25.620;2022-08-19T03:13:26;9.53;;;8.63;;
17024;SDS011;8629;42.496;25.620;2022-08-19T03:15:55;10.33;;;9.50;;
17024;SDS011;8629;42.496;25.620;2022-08-19T03:18:22;8.77;;;8.07;;
17024;SDS011;8629;42.496;25.620;2022-08-19T03:20:51;11.07;;;8.83;;
17024;SDS011;8629;42.496;25.620;2022-08-19T03:23:19;9.00;;;8.20;;
17024;SDS011;8629;42.496;25.620;2022-08-19T03:25:47;8.30;;;7.60;;
17024;SDS011;8629;42.496;25.620;2022-08-19T03:28:15;9.07;;;8.37;;
17024;SDS011;8629;42.496;25.620;2022-08-19T03:30:43;9.40;;;8.50;;
17024;SDS011;8629;42.496;25.620;2022-08-19T03:33:21;9.90;;;9.00;;
17024;SDS011;8629;42.496;25.620;2022-08-19T03:36:00;10.37;;;9.40;;
17024;SDS011;8629;42.496;25.620;2022-08-19T03:38:28;9.67;;;8.70;;
17024;SDS011;8629;42.496;25.620;2022-08-19T03:40:55;10.63;;;9.63;;
17024;SDS011;8629;42.496;25.620;2022-08-19T03:43:22;11.20;;;8.90;;
17024;SDS011;8629;42.496;25.620;2022-08-19T03:45:58;10.03;;;9.17;;
17024;SDS011;8629;42.496;25.620;2022-08-19T03:48:26;9.43;;;8.53;;
17024;SDS011;8629;42.496;25.620;2022-08-19T03:50:55;10.90;;;9.67;;
17024;SDS011;8629;42.496;25.620;2022-08-19T03:53:25;10.40;;;9.33;;
17024;SDS011;8629;42.496;25.620;2022-08-19T03:55:53;10.03;;;8.90;;
17024;SDS011;8629;42.496;25.620;2022-08-19T03:58:20;11.00;;;9.90;;
17024;SDS011;8629;42.496;25.620;2022-08-19T04:00:47;10.40;;;9.27;;
17024;SDS011;8629;42.496;25.620;2022-08-19T04:03:14;12.23;;;9.60;;
17024;SDS011;8629;42.496;25.620;2022-08-19T04:05:44;10.63;;;9.63;;
17024;SDS011;8629;42.496;25.620;2022-08-19T04:08:11;10.40;;;9.47;;
17024;SDS011;8629;42.496;25.620;2022-08-19T04:10:41;10.00;;;9.20;;
17024;SDS011;8629;42.496;25.620;2022-08-19T04:13:09;10.17;;;9.27;;
17024;SDS011;8629;42.496;25.620;2022-08-19T04:15:38;10.30;;;9.13;;
17024;SDS011;8629;42.496;25.620;2022-08-19T04:18:07;9.53;;;8.73;;
17024;SDS011;8629;42.496;25.620;2022-08-19T04:20:38;11.23;;;10.07;;
17024;SDS011;8629;42.496;25.620;2022-08-19T04:23:06;10.77;;;8.47;;
17024;SDS011;8629;42.496;25.620;2022-08-19T04:25:37;10.80;;;9.70;;
17024;SDS011;8629;42.496;25.620;2022-08-19T04:28:09;10.37;;;9.47;;
17024;SDS011;8629;42.496;25.620;2022-08-19T04:30:38;10.23;;;9.37;;
17024;SDS011;8629;42.496;25.620;2022-08-19T04:33:06;10.90;;;10.00;;
17024;SDS011;8629;42.496;25.620;2022-08-19T04:35:37;10.27;;;9.37;;
17024;SDS011;8629;42.496;25.620;2022-08-19T04:38:05;11.03;;;10.03;;
17024;SDS011;8629;42.496;25.620;2022-08-19T04:40:33;10.70;;;9.67;;
17024;SDS011;8629;42.496;25.620;2022-08-19T04:43:19;11.10;;;10.10;;
17024;SDS011;8629;42.496;25.620;2022-08-19T04:45:46;10.70;;;9.70;;
17024;SDS011;8629;42.496;25.620;2022-08-19T04:48:13;12.83;;;10.80;;
17024;SDS011;8629;42.496;25.620;2022-08-19T04:50:41;10.80;;;9.90;;
17024;SDS011;8629;42.496;25.620;2022-08-19T04:53:08;12.33;;;11.23;;
17024;SDS011;8629;42.496;25.620;2022-08-19T04:55:40;12.70;;;11.50;;
17024;SDS011;8629;42.496;25.620;2022-08-19T04:58:07;11.60;;;10.07;;
17024;SDS011;8629;42.496;25.620;2022-08-19T05:00:37;11.23;;;10.20;;
17024;SDS011;8629;42.496;25.620;2022-08-19T05:03:04;10.97;;;9.30;;
17024;SDS011;8629;42.496;25.620;2022-08-19T05:05:32;19.73;;;9.60;;
17024;SDS011;8629;42.496;25.620;2022-08-19T05:08:00;13.07;;;10.90;;
17024;SDS011;8629;42.496;25.620;2022-08-19T05:14:05;10.10;;;9.10;;
17024;SDS011;8629;42.496;25.620;2022-08-19T05:16:35;9.13;;;8.03;;
17024;SDS011;8629;42.496;25.620;2022-08-19T05:19:02;9.53;;;8.67;;
17024;SDS011;8629;42.496;25.620;2022-08-19T05:21:46;10.57;;;9.57;;
17024;SDS011;8629;42.496;25.620;2022-08-19T05:24:30;36.47;;;30.23;;
17024;SDS011;8629;42.496;25.620;2022-08-19T05:27:00;26.30;;;23.30;;
17024;SDS011;8629;42.496;25.620;2022-08-19T05:29:28;17.70;;;16.00;;
17024;SDS011;8629;42.496;25.620;2022-08-19T05:31:57;11.93;;;10.73;;
17024;SDS011;8629;42.496;25.620;2022-08-19T05:34:25;9.57;;;8.53;;
17024;SDS011;8629;42.496;25.620;2022-08-19T05:36:54;8.97;;;8.10;;
17024;SDS011;8629;42.496;25.620;2022-08-19T05:39:23;9.53;;;7.93;;
17024;SDS011;8629;42.496;25.620;2022-08-19T05:41:52;8.50;;;7.73;;
17024;SDS011;8629;42.496;25.620;2022-08-19T05:44:22;8.73;;;8.00;;
17024;SDS011;8629;42.496;25.620;2022-08-19T05:46:50;7.80;;;7.10;;
17024;SDS011;8629;42.496;25.620;2022-08-19T05:49:20;8.63;;;7.93;;
17024;SDS011;8629;42.496;25.620;2022-08-19T05:51:48;8.53;;;7.83;;
17024;SDS011;8629;42.496;25.620;2022-08-19T05:54:16;9.57;;;7.80;;
17024;SDS011;8629;42.496;25.620;2022-08-19T05:56:44;9.67;;;8.73;;
17024;SDS011;8629;42.496;25.620;2022-08-19T05:59:13;13.40;;;9.40;;
17024;SDS011;8629;42.496;25.620;2022-08-19T06:01:41;9.70;;;8.70;;
17024;SDS011;8629;42.496;25.620;2022-08-19T06:07:33;10.20;;;9.10;;
17024;SDS011;8629;42.496;25.620;2022-08-19T06:10:00;10.73;;;9.20;;
17024;SDS011;8629;42.496;25.620;2022-08-19T06:12:27;11.53;;;8.97;;
17024;SDS011;8629;42.496;25.620;2022-08-19T06:14:56;10.20;;;8.47;;
17024;SDS011;8629;42.496;25.620;2022-08-19T06:17:23;9.17;;;8.33;;
17024;SDS011;8629;42.496;25.620;2022-08-19T06:19:51;9.50;;;8.60;;
17024;SDS011;8629;42.496;25.620;2022-08-19T06:22:18;9.43;;;8.50;;
17024;SDS011;8629;42.496;25.620;2022-08-19T06:24:47;10.33;;;7.83;;
17024;SDS011;8629;42.496;25.620;2022-08-19T06:27:17;8.27;;;7.57;;
17024;SDS011;8629;42.496;25.620;2022-08-19T06:29:45;9.00;;;8.10;;
17024;SDS011;8629;42.496;25.620;2022-08-19T06:32:14;11.95;;;7.85;;
17024;SDS011;8629;42.496;25.620;2022-08-19T06:34:41;8.23;;;7.53;;
17024;SDS011;8629;42.496;25.620;2022-08-19T06:37:08;7.90;;;7.07;;
17024;SDS011;8629;42.496;25.620;2022-08-19T06:39:37;9.60;;;8.30;;
17024;SDS011;8629;42.496;25.620;2022-08-19T06:42:07;8.20;;;7.50;;
17024;SDS011;8629;42.496;25.620;2022-08-19T06:44:37;8.82;;;7.10;;
17024;SDS011;8629;42.496;25.620;2022-08-19T06:49:59;8.73;;;6.78;;
17024;SDS011;8629;42.496;25.620;2022-08-19T06:52:28;8.15;;;7.13;;
17024;SDS011;8629;42.496;25.620;2022-08-19T06:54:55;6.68;;;6.18;;
17024;SDS011;8629;42.496;25.620;2022-08-19T07:00:45;9.77;;;7.50;;
17024;SDS011;8629;42.496;25.620;2022-08-19T07:03:13;7.38;;;6.70;;
17024;SDS011;8629;42.496;25.620;2022-08-19T07:09:02;7.10;;;6.50;;
17024;SDS011;8629;42.496;25.620;2022-08-19T07:11:30;6.82;;;6.30;;
17024;SDS011;8629;42.496;25.620;2022-08-19T07:13:57;6.90;;;6.40;;
17024;SDS011;8629;42.496;25.620;2022-08-19T07:19:47;7.03;;;5.85;;
17024;SDS011;8629;42.496;25.620;2022-08-19T07:22:15;6.10;;;5.63;;
17024;SDS011;8629;42.496;25.620;2022-08-19T07:24:43;6.03;;;5.43;;
17024;SDS011;8629;42.496;25.620;2022-08-19T07:27:10;6.15;;;5.50;;
17024;SDS011;8629;42.496;25.620;2022-08-19T07:29:39;8.13;;;5.55;;
17024;SDS011;8629;42.496;25.620;2022-08-19T07:32:06;9.35;;;6.30;;
17024;SDS011;8629;42.496;25.620;2022-08-19T07:34:34;5.97;;;5.45;;
17024;SDS011;8629;42.496;25.620;2022-08-19T07:37:04;17.00;;;5.78;;
17024;SDS011;8629;42.496;25.620;2022-08-19T07:39:33;6.05;;;5.60;;
17024;SDS011;8629;42.496;25.620;2022-08-19T07:42:03;5.93;;;5.53;;
17024;SDS011;8629;42.496;25.620;2022-08-19T07:44:32;6.28;;;5.78;;
17024;SDS011;8629;42.496;25.620;2022-08-19T07:47:00;6.03;;;5.53;;
17024;SDS011;8629;42.496;25.620;2022-08-19T07:49:27;6.47;;;5.65;;
17024;SDS011;8629;42.496;25.620;2022-08-19T07:54:34;5.95;;;5.45;;
17024;SDS011;8629;42.496;25.620;2022-08-19T07:57:03;6.45;;;5.95;;
17024;SDS011;8629;42.496;25.620;2022-08-19T07:59:30;8.27;;;6.00;;
17024;SDS011;8629;42.496;25.620;2022-08-19T08:01:57;5.13;;;4.72;;
17024;SDS011;8629;42.496;25.620;2022-08-19T08:07:48;6.35;;;5.15;;
17024;SDS011;8629;42.496;25.620;2022-08-19T08:13:54;6.20;;;5.70;;
17024;SDS011;8629;42.496;25.620;2022-08-19T08:16:21;6.70;;;5.75;;
17024;SDS011;8629;42.496;25.620;2022-08-19T08:18:50;5.88;;;5.40;;
17024;SDS011;8629;42.496;25.620;2022-08-19T08:21:17;6.50;;;5.97;;
17024;SDS011;8629;42.496;25.620;2022-08-19T08:23:46;5.65;;;5.13;;
17024;SDS011;8629;42.496;25.620;2022-08-19T08:26:13;5.82;;;5.22;;
17024;SDS011;8629;42.496;25.620;2022-08-19T08:28:42;6.18;;;5.65;;
17024;SDS011;8629;42.496;25.620;2022-08-19T08:31:09;6.65;;;6.00;;
17024;SDS011;8629;42.496;25.620;2022-08-19T08:36:57;8.63;;;6.40;;
17024;SDS011;8629;42.496;25.620;2022-08-19T08:39:25;6.25;;;5.82;;
17024;SDS011;8629;42.496;25.620;2022-08-19T08:41:55;6.10;;;5.70;;
17024;SDS011;8629;42.496;25.620;2022-08-19T08:44:27;8.00;;;6.80;;
17024;SDS011;8629;42.496;25.620;2022-08-19T08:47:00;7.20;;;6.15;;
17024;SDS011;8629;42.496;25.620;2022-08-19T08:49:31;6.05;;;5.57;;
17024;SDS011;8629;42.496;25.620;2022-08-19T08:52:03;8.07;;;6.30;;
17024;SDS011;8629;42.496;25.620;2022-08-19T08:54:35;6.97;;;6.28;;
17024;SDS011;8629;42.496;25.620;2022-08-19T08:57:07;6.65;;;6.18;;
17024;SDS011;8629;42.496;25.620;2022-08-19T08:59:38;6.05;;;5.55;;
17024;SDS011;8629;42.496;25.620;2022-08-19T09:05:30;6.25;;;5.63;;
17024;SDS011;8629;42.496;25.620;2022-08-19T09:08:04;6.25;;;5.70;;
17024;SDS011;8629;42.496;25.620;2022-08-19T09:10:37;6.00;;;5.50;;
17024;SDS011;8629;42.496;25.620;2022-08-19T09:13:07;6.85;;;6.25;;
17024;SDS011;8629;42.496;25.620;2022-08-19T09:15:40;6.03;;;5.43;;
17024;SDS011;8629;42.496;25.620;2022-08-19T09:18:09;6.70;;;6.10;;
17024;SDS011;8629;42.496;25.620;2022-08-19T09:20:37;7.30;;;6.70;;
17024;SDS011;8629;42.496;25.620;2022-08-19T09:23:06;6.65;;;5.80;;
17024;SDS011;8629;42.496;25.620;2022-08-19T09:25:33;6.65;;;6.13;;
17024;SDS011;8629;42.496;25.620;2022-08-19T09:28:02;5.93;;;5.50;;
17024;SDS011;8629;42.496;25.620;2022-08-19T09:30:32;6.65;;;6.05;;
17024;SDS011;8629;42.496;25.620;2022-08-19T09:33:01;6.18;;;5.57;;
17024;SDS011;8629;42.496;25.620;2022-08-19T09:35:30;6.85;;;6.28;;
17024;SDS011;8629;42.496;25.620;2022-08-19T09:37:57;6.10;;;5.60;;
17024;SDS011;8629;42.496;25.620;2022-08-19T09:40:26;6.47;;;5.88;;
17024;SDS011;8629;42.496;25.620;2022-08-19T09:42:53;6.50;;;5.95;;
17024;SDS011;8629;42.496;25.620;2022-08-19T09:45:23;6.47;;;5.97;;
17024;SDS011;8629;42.496;25.620;2022-08-19T09:47:51;5.90;;;5.40;;
17024;SDS011;8629;42.496;25.620;2022-08-19T09:50:19;5.88;;;5.30;;
17024;SDS011;8629;42.496;25.620;2022-08-19T09:52:47;7.70;;;5.30;;
17024;SDS011;8629;42.496;25.620;2022-08-19T09:55:15;7.03;;;5.97;;
17024;SDS011;8629;42.496;25.620;2022-08-19T09:57:42;6.72;;;6.07;;
17024;SDS011;8629;42.496;25.620;2022-08-19T10:00:09;6.80;;;6.00;;
17024;SDS011;8629;42.496;25.620;2022-08-19T10:06:01;5.75;;;5.28;;
17024;SDS011;8629;42.496;25.620;2022-08-19T10:08:35;6.57;;;5.97;;
17024;SDS011;8629;42.496;25.620;2022-08-19T10:11:05;7.97;;;6.65;;
17024;SDS011;8629;42.496;25.620;2022-08-19T10:13:33;6.55;;;5.85;;
17024;SDS011;8629;42.496;25.620;2022-08-19T10:16:03;5.97;;;5.47;;
17024;SDS011;8629;42.496;25.620;2022-08-19T10:18:32;5.93;;;5.35;;
17024;SDS011;8629;42.496;25.620;2022-08-19T10:21:05;8.27;;;5.88;;
17024;SDS011;8629;42.496;25.620;2022-08-19T10:23:36;6.80;;;6.25;;
17024;SDS011;8629;42.496;25.620;2022-08-19T10:26:04;6.07;;;5.47;;
17024;SDS011;8629;42.496;25.620;2022-08-19T10:28:34;6.03;;;5.63;;
17024;SDS011;8629;42.496;25.620;2022-08-19T10:31:06;6.30;;;5.43;;
17024;SDS011;8629;42.496;25.620;2022-08-19T10:33:33;5.38;;;4.97;;
17024;SDS011;8629;42.496;25.620;2022-08-19T10:42:52;7.20;;;5.35;;
17024;SDS011;8629;42.496;25.620;2022-08-19T10:45:20;5.65;;;5.15;;
17024;SDS011;8629;42.496;25.620;2022-08-19T10:47:51;6.07;;;5.53;;
17024;SDS011;8629;42.496;25.620;2022-08-19T10:53:40;6.47;;;5.85;;
17024;SDS011;8629;42.496;25.620;2022-08-19T10:56:07;6.93;;;6.32;;
17024;SDS011;8629;42.496;25.620;2022-08-19T10:59:08;5.00;;;4.57;;
17024;SDS011;8629;42.496;25.620;2022-08-19T11:01:39;5.50;;;5.00;;
17024;SDS011;8629;42.496;25.620;2022-08-19T11:04:06;5.35;;;4.95;;
17024;SDS011;8629;42.496;25.620;2022-08-19T11:06:36;5.88;;;5.47;;
17024;SDS011;8629;42.496;25.620;2022-08-19T11:09:03;5.22;;;4.82;;
17024;SDS011;8629;42.496;25.620;2022-08-19T11:11:31;5.60;;;5.10;;
17024;SDS011;8629;42.496;25.620;2022-08-19T11:14:05;5.03;;;4.63;;
17024;SDS011;8629;42.496;25.620;2022-08-19T11:16:35;6.32;;;5.53;;
17024;SDS011;8629;42.496;25.620;2022-08-19T11:19:03;8.55;;;5.20;;
17024;SDS011;8629;42.496;25.620;2022-08-19T11:21:31;5.38;;;4.88;;
17024;SDS011;8629;42.496;25.620;2022-08-19T11:24:00;4.97;;;4.57;;
17024;SDS011;8629;42.496;25.620;2022-08-19T11:26:29;6.07;;;5.45;;
17024;SDS011;8629;42.496;25.620;2022-08-19T11:28:57;5.72;;;5.18;;
17024;SDS011;8629;42.496;25.620;2022-08-19T11:31:26;5.45;;;5.03;;
17024;SDS011;8629;42.496;25.620;2022-08-19T11:33:55;5.95;;;5.55;;
17024;SDS011;8629;42.496;25.620;2022-08-19T11:36:25;5.57;;;5.10;;
17024;SDS011;8629;42.496;25.620;2022-08-19T11:38:53;5.88;;;5.13;;
17024;SDS011;8629;42.496;25.620;2022-08-19T11:41:21;6.35;;;5.75;;
17024;SDS011;8629;42.496;25.620;2022-08-19T11:43:49;5.28;;;4.75;;
17024;SDS011;8629;42.496;25.620;2022-08-19T11:46:18;5.70;;;5.20;;
17024;SDS011;8629;42.496;25.620;2022-08-19T11:48:46;5.75;;;5.25;;
17024;SDS011;8629;42.496;25.620;2022-08-19T11:51:14;5.72;;;5.15;;
17024;SDS011;8629;42.496;25.620;2022-08-19T11:53:43;5.43;;;4.82;;
17024;SDS011;8629;42.496;25.620;2022-08-19T11:56:10;5.50;;;5.00;;
17024;SDS011;8629;42.496;25.620;2022-08-19T11:58:38;5.65;;;5.20;;
17024;SDS011;8629;42.496;25.620;2022-08-19T12:04:29;5.65;;;5.00;;
17024;SDS011;8629;42.496;25.620;2022-08-19T12:06:56;5.10;;;4.72;;
17024;SDS011;8629;42.496;25.620;2022-08-19T12:09:23;5.25;;;4.75;;
17024;SDS011;8629;42.496;25.620;2022-08-19T12:15:12;6.53;;;4.63;;
17024;SDS011;8629;42.496;25.620;2022-08-19T12:17:39;5.85;;;5.28;;
17024;SDS011;8629;42.496;25.620;2022-08-19T12:20:09;5.32;;;4.93;;
17024;SDS011;8629;42.496;25.620;2022-08-19T12:26:02;7.07;;;4.95;;
17024;SDS011;8629;42.496;25.620;2022-08-19T12:28:30;6.55;;;4.50;;
17024;SDS011;8629;42.496;25.620;2022-08-19T12:34:19;5.97;;;5.25;;
17024;SDS011;8629;42.496;25.620;2022-08-19T12:36:47;5.78;;;5.20;;
17024;SDS011;8629;42.496;25.620;2022-08-19T12:39:15;6.90;;;4.93;;
17024;SDS011;8629;42.496;25.620;2022-08-19T12:41:43;5.57;;;5.13;;
17024;SDS011;8629;42.496;25.620;2022-08-19T12:44:10;5.30;;;4.90;;
17024;SDS011;8629;42.496;25.620;2022-08-19T12:46:37;5.00;;;4.60;;
17024;SDS011;8629;42.496;25.620;2022-08-19T12:49:09;5.65;;;5.25;;
17024;SDS011;8629;42.496;25.620;2022-08-19T12:51:36;4.95;;;4.50;;
17024;SDS011;8629;42.496;25.620;2022-08-19T12:54:06;5.10;;;4.63;;
17024;SDS011;8629;42.496;25.620;2022-08-19T12:56:33;5.28;;;4.57;;
17024;SDS011;8629;42.496;25.620;2022-08-19T12:59:00;5.03;;;4.63;;
17024;SDS011;8629;42.496;25.620;2022-08-19T13:01:28;6.75;;;4.85;;
17024;SDS011;8629;42.496;25.620;2022-08-19T13:03:57;5.22;;;4.78;;
17024;SDS011;8629;42.496;25.620;2022-08-19T13:06:25;5.75;;;5.25;;
17024;SDS011;8629;42.496;25.620;2022-08-19T13:08:53;5.22;;;4.78;;
17024;SDS011;8629;42.496;25.620;2022-08-19T13:11:23;4.90;;;4.60;;
17024;SDS011;8629;42.496;25.620;2022-08-19T13:13:51;5.38;;;4.80;;
17024;SDS011;8629;42.496;25.620;2022-08-19T13:19:41;5.38;;;5.03;;
17024;SDS011;8629;42.496;25.620;2022-08-19T13:22:08;5.30;;;4.80;;
17024;SDS011;8629;42.496;25.620;2022-08-19T13:24:36;4.90;;;4.38;;
17024;SDS011;8629;42.496;25.620;2022-08-19T13:30:26;5.28;;;4.53;;
17024;SDS011;8629;42.496;25.620;2022-08-19T13:33:10;4.72;;;4.32;;
17024;SDS011;8629;42.496;25.620;2022-08-19T13:35:40;4.60;;;4.30;;
17024;SDS011;8629;42.496;25.620;2022-08-19T13:38:08;4.80;;;4.40;;
17024;SDS011;8629;42.496;25.620;2022-08-19T13:40:36;6.90;;;5.40;;
17024;SDS011;8629;42.496;25.620;2022-08-19T13:43:04;5.47;;;5.00;;
17024;SDS011;8629;42.496;25.620;2022-08-19T13:45:36;9.68;;;8.70;;
17024;SDS011;8629;42.496;25.620;2022-08-19T13:48:06;5.32;;;4.82;;
17024;SDS011;8629;42.496;25.620;2022-08-19T13:50:38;4.82;;;4.30;;
17024;SDS011;8629;42.496;25.620;2022-08-19T13:53:08;5.05;;;4.65;;
17024;SDS011;8629;42.496;25.620;2022-08-19T13:55:37;5.45;;;5.00;;
17024;SDS011;8629;42.496;25.620;2022-08-19T13:58:04;5.75;;;5.25;;
17024;SDS011;8629;42.496;25.620;2022-08-19T14:00:32;4.68;;;4.22;;
17024;SDS011;8629;42.496;25.620;2022-08-19T14:06:23;6.68;;;4.60;;
17024;SDS011;8629;42.496;25.620;2022-08-19T14:08:50;5.47;;;4.97;;
17024;SDS011;8629;42.496;25.620;2022-08-19T14:11:17;5.13;;;4.72;;
17024;SDS011;8629;42.496;25.620;2022-08-19T14:13:44;4.90;;;4.50;;
17024;SDS011;8629;42.496;25.620;2022-08-19T14:16:12;6.18;;;4.70;;
17024;SDS011;8629;42.496;25.620;2022-08-19T14:18:40;5.13;;;4.63;;
17024;SDS011;8629;42.496;25.620;2022-08-19T14:21:16;5.20;;;4.80;;
17024;SDS011;8629;42.496;25.620;2022-08-19T14:23:49;4.90;;;4.50;;
17024;SDS011;8629;42.496;25.620;2022-08-19T14:26:17;5.32;;;4.10;;
17024;SDS011;8629;42.496;25.620;2022-08-19T14:28:45;5.10;;;4.63;;
17024;SDS011;8629;42.496;25.620;2022-08-19T14:31:13;9.05;;;5.00;;
17024;SDS011;8629;42.496;25.620;2022-08-19T14:33:44;4.70;;;4.32;;
17024;SDS011;8629;42.496;25.620;2022-08-19T14:36:11;5.85;;;5.22;;
17024;SDS011;8629;42.496;25.620;2022-08-19T14:38:38;5.57;;;5.18;;
17024;SDS011;8629;42.496;25.620;2022-08-19T14:41:11;5.25;;;4.85;;
17024;SDS011;8629;42.496;25.620;2022-08-19T14:43:41;5.30;;;4.90;;
17024;SDS011;8629;42.496;25.620;2022-08-19T14:46:11;7.25;;;4.97;;
17024;SDS011;8629;42.496;25.620;2022-08-19T14:48:38;4.97;;;4.57;;
17024;SDS011;8629;42.496;25.620;2022-08-19T14:51:06;6.10;;;5.22;;
17024;SDS011;8629;42.496;25.620;2022-08-19T14:53:33;5.82;;;5.38;;
17024;SDS011;8629;42.496;25.620;2022-08-19T14:56:00;5.03;;;4.63;;
17024;SDS011;8629;42.496;25.620;2022-08-19T14:58:30;5.93;;;5.38;;
17024;SDS011;8629;42.496;25.620;2022-08-19T15:00:57;5.15;;;4.75;;
17024;SDS011;8629;42.496;25.620;2022-08-19T15:03:25;5.15;;;4.30;;
17024;SDS011;8629;42.496;25.620;2022-08-19T15:05:52;5.13;;;4.03;;
17024;SDS011;8629;42.496;25.620;2022-08-19T15:08:21;5.97;;;4.03;;
17024;SDS011;8629;42.496;25.620;2022-08-19T15:10:49;4.60;;;3.72;;
17024;SDS011;8629;42.496;25.620;2022-08-19T15:13:17;4.30;;;4.00;;
17024;SDS011;8629;42.496;25.620;2022-08-19T15:15:46;4.50;;;4.18;;
17024;SDS011;8629;42.496;25.620;2022-08-19T15:18:14;5.03;;;4.63;;
17024;SDS011;8629;42.496;25.620;2022-08-19T15:20:41;4.65;;;4.20;;
17024;SDS011;8629;42.496;25.620;2022-08-19T15:23:09;4.80;;;4.40;;
17024;SDS011;8629;42.496;25.620;2022-08-19T15:25:36;4.28;;;3.97;;
17024;SDS011;8629;42.496;25.620;2022-08-19T15:28:03;5.20;;;4.80;;
17024;SDS011;8629;42.496;25.620;2022-08-19T15:30:31;5.47;;;4.72;;
17024;SDS011;8629;42.496;25.620;2022-08-19T15:33:01;5.05;;;4.65;;
17024;SDS011;8629;42.496;25.620;2022-08-19T15:35:29;5.22;;;4.90;;
17024;SDS011;8629;42.496;25.620;2022-08-19T15:37:56;4.50;;;4.10;;
17024;SDS011;8629;42.496;25.620;2022-08-19T15:40:24;4.07;;;3.78;;
17024;SDS011;8629;42.496;25.620;2022-08-19T15:42:52;6.72;;;4.43;;
17024;SDS011;8629;42.496;25.620;2022-08-19T15:45:20;5.38;;;4.75;;
17024;SDS011;8629;42.496;25.620;2022-08-19T15:47:47;4.95;;;4.40;;
17024;SDS011;8629;42.496;25.620;2022-08-19T15:50:17;5.03;;;4.53;;
17024;SDS011;8629;42.496;25.620;2022-08-19T15:52:46;4.85;;;4.35;;
17024;SDS011;8629;42.496;25.620;2022-08-19T15:55:14;4.10;;;3.72;;
17024;SDS011;8629;42.496;25.620;2022-08-19T15:57:41;4.60;;;4.30;;
17024;SDS011;8629;42.496;25.620;2022-08-19T16:00:25;4.63;;;4.22;;
17024;SDS011;8629;42.496;25.620;2022-08-19T16:03:10;4.93;;;3.95;;
17024;SDS011;8629;42.496;25.620;2022-08-19T16:05:54;4.28;;;3.95;;
17024;SDS011;8629;42.496;25.620;2022-08-19T16:08:38;5.35;;;4.70;;
17024;SDS011;8629;42.496;25.620;2022-08-19T16:11:06;4.88;;;4.47;;
17024;SDS011;8629;42.496;25.620;2022-08-19T16:13:33;4.10;;;3.80;;